sensor_id;sensor_type;location;lat;lon;timestamp;pressure;altitude;pressure_sealevel;temperature;humidity
11038;BME280;5572;49.540;11.932;2023-11-18T00:00:28;97869.91;;;-0.07;100.00
11038;BME280;5572;49.540;11.932;2023-11-18T00:02:54;97857.59;;;0.12;100.00
11038;BME280;5572;49.540;11.932;2023-11-18T00:05:21;97852.19;;;0.27;100.00
11038;BME280;5572;49.540;11.932;2023-11-18T00:07:49;97861.00;;;0.06;100.00
11038;BME280;5572;49.540;11.932;2023-11-18T00:10:17;97859.69;;;0.17;100.00
11038;BME280;5572;49.540;11.932;2023-11-18T00:12:44;97853.88;;;0.34;100.00
11038;BME280;5572;49.540;11.932;2023-11-18T00:15:12;97868.56;;;0.30;100.00
11038;BME280;5572;49.540;11.932;2023-11-18T00:17:39;97876.78;;;0.08;100.00
11038;BME280;5572;49.540;11.932;2023-11-18T00:20:06;97863.97;;;0.18;100.00
11038;BME280;5572;49.540;11.932;2023-11-18T00:22:37;97868.50;;;0.24;100.00
11038;BME280;5572;49.540;11.932;2023-11-18T00:25:05;97875.91;;;0.28;100.00
11038;BME280;5572;49.540;11.932;2023-11-18T00:27:34;97875.25;;;0.20;100.00
11038;BME280;5572;49.540;11.932;2023-11-18T00:30:02;97886.16;;;0.31;100.00
11038;BME280;5572;49.540;11.932;2023-11-18T00:32:30;97891.66;;;0.02;100.00
11038;BME280;5572;49.540;11.932;2023-11-18T00:34:57;97882.91;;;0.08;100.00
11038;BME280;5572;49.540;11.932;2023-11-18T00:37:24;97884.19;;;0.12;100.00
11038;BME280;5572;49.540;11.932;2023-11-18T00:39:51;97899.88;;;-0.13;100.00
11038;BME280;5572;49.540;11.932;2023-11-18T00:42:18;97896.63;;;-0.30;100.00
11038;BME280;5572;49.540;11.932;2023-11-18T00:44:46;97897.03;;;-0.33;100.00
11038;BME280;5572;49.540;11.932;2023-11-18T00:47:13;97887.66;;;-0.08;100.00
11038;BME280;5572;49.540;11.932;2023-11-18T00:49:40;97889.50;;;0.12;100.00
11038;BME280;5572;49.540;11.932;2023-11-18T00:52:06;97892.97;;;0.13;100.00
11038;BME280;5572;49.540;11.932;2023-11-18T00:54:34;97900.25;;;0.04;100.00
11038;BME280;5572;49.540;11.932;2023-11-18T00:57:01;97894.22;;;0.17;100.00
11038;BME280;5572;49.540;11.932;2023-11-18T00:59:28;97907.91;;;-0.07;100.00
11038;BME280;5572;49.540;11.932;2023-11-18T01:01:56;97920.38;;;-0.07;100.00
11038;BME280;5572;49.540;11.932;2023-11-18T01:04:23;97909.03;;;-0.16;100.00
11038;BME280;5572;49.540;11.932;2023-11-18T01:06:51;97903.41;;;0.14;100.00
11038;BME280;5572;49.540;11.932;2023-11-18T01:09:18;97924.69;;;-0.06;100.00
11038;BME280;5572;49.540;11.932;2023-11-18T01:11:44;97922.19;;;-0.08;100.00
11038;BME280;5572;49.540;11.932;2023-11-18T01:14:11;97929.59;;;-0.03;100.00
11038;BME280;5572;49.540;11.932;2023-11-18T01:16:38;97923.34;;;0.04;100.00
11038;BME280;5572;49.540;11.932;2023-11-18T01:19:06;97923.03;;;0.13;100.00
11038;BME280;5572;49.540;11.932;2023-11-18T01:21:34;97919.66;;;0.26;100.00
11038;BME280;5572;49.540;11.932;2023-11-18T01:24:02;97928.78;;;0.17;100.00
11038;BME280;5572;49.540;11.932;2023-11-18T01:26:29;97935.31;;;-0.06;100.00
11038;BME280;5572;49.540;11.932;2023-11-18T01:28:56;97937.84;;;0.01;100.00
11038;BME280;5572;49.540;11.932;2023-11-18T01:31:23;97946.94;;;-0.28;100.00
11038;BME280;5572;49.540;11.932;2023-11-18T01:33:49;97938.97;;;-0.07;100.00
11038;BME280;5572;49.540;11.932;2023-11-18T01:36:17;97926.28;;;0.15;100.00
11038;BME280;5572;49.540;11.932;2023-11-18T01:38:44;97932.88;;;0.19;100.00
11038;BME280;5572;49.540;11.932;2023-11-18T01:41:11;97945.25;;;0.06;100.00
11038;BME280;5572;49.540;11.932;2023-11-18T01:43:38;97948.91;;;0.26;100.00
11038;BME280;5572;49.540;11.932;2023-11-18T01:46:08;97951.00;;;0.09;100.00
11038;BME280;5572;49.540;11.932;2023-11-18T01:48:38;97951.28;;;0.21;100.00
11038;BME280;5572;49.540;11.932;2023-11-18T01:51:08;97949.84;;;0.18;100.00
11038;BME280;5572;49.540;11.932;2023-11-18T01:53:39;97957.50;;;0.07;100.00
11038;BME280;5572;49.540;11.932;2023-11-18T01:56:09;97970.34;;;-0.17;100.00
11038;BME280;5572;49.540;11.932;2023-11-18T01:58:38;97952.06;;;-0.06;100.00
11038;BME280;5572;49.540;11.932;2023-11-18T02:01:06;97950.91;;;0.03;100.00
11038;BME280;5572;49.540;11.932;2023-11-18T02:03:33;97965.09;;;-0.32;100.00
11038;BME280;5572;49.540;11.932;2023-11-18T02:06:01;97944.59;;;0.04;100.00
11038;BME280;5572;49.540;11.932;2023-11-18T02:08:30;97950.34;;;-0.13;100.00
11038;BME280;5572;49.540;11.932;2023-11-18T02:11:01;97953.28;;;-0.08;100.00
11038;BME280;5572;49.540;11.932;2023-11-18T02:13:39;97954.91;;;-0.07;100.00
11038;BME280;5572;49.540;11.932;2023-11-18T02:16:07;97964.06;;;-0.10;100.00
11038;BME280;5572;49.540;11.932;2023-11-18T02:18:35;97971.00;;;-0.15;100.00
11038;BME280;5572;49.540;11.932;2023-11-18T02:21:05;97972.00;;;-0.16;100.00
11038;BME280;5572;49.540;11.932;2023-11-18T02:23:34;97976.78;;;-0.26;100.00
11038;BME280;5572;49.540;11.932;2023-11-18T02:26:02;97987.38;;;-0.62;100.00
11038;BME280;5572;49.540;11.932;2023-11-18T02:28:29;97987.09;;;-0.52;100.00
11038;BME280;5572;49.540;11.932;2023-11-18T02:30:59;97989.50;;;-0.57;100.00
11038;BME280;5572;49.540;11.932;2023-11-18T02:33:34;97973.22;;;-0.33;100.00
11038;BME280;5572;49.540;11.932;2023-11-18T02:36:09;97981.66;;;-0.44;100.00
11038;BME280;5572;49.540;11.932;2023-11-18T02:38:43;97982.75;;;-0.39;100.00
11038;BME280;5572;49.540;11.932;2023-11-18T02:41:15;97985.13;;;-0.29;100.00
11038;BME280;5572;49.540;11.932;2023-11-18T02:43:44;97978.53;;;-0.33;100.00
11038;BME280;5572;49.540;11.932;2023-11-18T02:46:11;97962.88;;;-0.07;100.00
11038;BME280;5572;49.540;11.932;2023-11-18T02:48:38;97959.66;;;-0.03;100.00
11038;BME280;5572;49.540;11.932;2023-11-18T02:51:07;97983.03;;;-0.34;100.00
11038;BME280;5572;49.540;11.932;2023-11-18T02:53:33;97975.50;;;-0.30;100.00
11038;BME280;5572;49.540;11.932;2023-11-18T02:56:00;97977.97;;;-0.29;100.00
11038;BME280;5572;49.540;11.932;2023-11-18T02:58:32;97991.81;;;-0.33;100.00
11038;BME280;5572;49.540;11.932;2023-11-18T03:00:58;97985.41;;;-0.39;100.00
11038;BME280;5572;49.540;11.932;2023-11-18T03:03:25;97987.91;;;-0.37;100.00
11038;BME280;5572;49.540;11.932;2023-11-18T03:05:53;97983.75;;;-0.25;100.00
11038;BME280;5572;49.540;11.932;2023-11-18T03:08:20;97994.38;;;-0.25;100.00
11038;BME280;5572;49.540;11.932;2023-11-18T03:10:47;98003.63;;;-0.36;100.00
11038;BME280;5572;49.540;11.932;2023-11-18T03:13:17;98013.00;;;-0.54;100.00
11038;BME280;5572;49.540;11.932;2023-11-18T03:15:46;98015.19;;;-0.58;100.00
11038;BME280;5572;49.540;11.932;2023-11-18T03:18:13;98021.25;;;-0.78;100.00
11038;BME280;5572;49.540;11.932;2023-11-18T03:20:41;98033.50;;;-1.06;100.00
11038;BME280;5572;49.540;11.932;2023-11-18T03:23:08;97994.78;;;-0.57;100.00
11038;BME280;5572;49.540;11.932;2023-11-18T03:25:35;98022.47;;;-0.81;100.00
11038;BME280;5572;49.540;11.932;2023-11-18T03:28:03;98022.16;;;-0.86;100.00
11038;BME280;5572;49.540;11.932;2023-11-18T03:30:31;98025.91;;;-0.80;100.00
11038;BME280;5572;49.540;11.932;2023-11-18T03:33:00;98021.91;;;-0.62;100.00
11038;BME280;5572;49.540;11.932;2023-11-18T03:35:26;98029.31;;;-0.57;100.00
11038;BME280;5572;49.540;11.932;2023-11-18T03:37:53;98043.75;;;-0.74;100.00
11038;BME280;5572;49.540;11.932;2023-11-18T03:40:20;98049.34;;;-0.69;100.00
11038;BME280;5572;49.540;11.932;2023-11-18T03:42:47;98049.91;;;-0.74;100.00
11038;BME280;5572;49.540;11.932;2023-11-18T03:45:14;98043.13;;;-0.62;100.00
11038;BME280;5572;49.540;11.932;2023-11-18T03:47:42;98049.59;;;-0.79;100.00
11038;BME280;5572;49.540;11.932;2023-11-18T03:50:12;98057.47;;;-0.99;100.00
11038;BME280;5572;49.540;11.932;2023-11-18T03:52:39;98063.38;;;-1.12;100.00
11038;BME280;5572;49.540;11.932;2023-11-18T03:55:07;98055.84;;;-0.86;100.00
11038;BME280;5572;49.540;11.932;2023-11-18T03:57:34;98067.72;;;-0.96;100.00
11038;BME280;5572;49.540;11.932;2023-11-18T04:00:01;98046.78;;;-0.77;100.00
11038;BME280;5572;49.540;11.932;2023-11-18T04:02:28;98042.59;;;-0.72;100.00
11038;BME280;5572;49.540;11.932;2023-11-18T04:04:55;98061.41;;;-0.95;100.00
11038;BME280;5572;49.540;11.932;2023-11-18T04:07:22;98061.06;;;-0.92;100.00
11038;BME280;5572;49.540;11.932;2023-11-18T04:09:49;98055.22;;;-0.74;100.00
11038;BME280;5572;49.540;11.932;2023-11-18T04:12:16;98054.91;;;-0.93;100.00
11038;BME280;5572;49.540;11.932;2023-11-18T04:14:43;98056.94;;;-0.95;100.00
11038;BME280;5572;49.540;11.932;2023-11-18T04:17:09;98058.84;;;-0.89;100.00
11038;BME280;5572;49.540;11.932;2023-11-18T04:19:36;98058.66;;;-0.88;100.00
11038;BME280;5572;49.540;11.932;2023-11-18T04:22:04;98049.81;;;-0.80;100.00
11038;BME280;5572;49.540;11.932;2023-11-18T04:24:32;98069.91;;;-1.00;100.00
11038;BME280;5572;49.540;11.932;2023-11-18T04:27:00;98060.22;;;-0.93;100.00
11038;BME280;5572;49.540;11.932;2023-11-18T04:29:27;98071.38;;;-0.97;100.00
11038;BME280;5572;49.540;11.932;2023-11-18T04:31:54;98056.41;;;-0.76;100.00
11038;BME280;5572;49.540;11.932;2023-11-18T04:34:20;98067.16;;;-0.92;100.00
11038;BME280;5572;49.540;11.932;2023-11-18T04:36:47;98090.50;;;-1.39;100.00
11038;BME280;5572;49.540;11.932;2023-11-18T04:39:14;98082.16;;;-1.13;100.00
11038;BME280;5572;49.540;11.932;2023-11-18T04:41:42;98082.97;;;-1.13;100.00
11038;BME280;5572;49.540;11.932;2023-11-18T04:44:09;98073.13;;;-0.90;100.00
11038;BME280;5572;49.540;11.932;2023-11-18T04:46:35;98079.78;;;-0.94;100.00
11038;BME280;5572;49.540;11.932;2023-11-18T04:49:02;98085.28;;;-0.95;100.00
11038;BME280;5572;49.540;11.932;2023-11-18T04:51:30;98074.69;;;-0.67;100.00
11038;BME280;5572;49.540;11.932;2023-11-18T04:53:58;98083.41;;;-1.09;100.00
11038;BME280;5572;49.540;11.932;2023-11-18T04:56:26;98074.94;;;-1.05;100.00
11038;BME280;5572;49.540;11.932;2023-11-18T04:58:57;98082.81;;;-1.34;100.00
11038;BME280;5572;49.540;11.932;2023-11-18T05:01:24;98069.88;;;-1.14;100.00
11038;BME280;5572;49.540;11.932;2023-11-18T05:03:51;98078.19;;;-1.17;100.00
11038;BME280;5572;49.540;11.932;2023-11-18T05:06:18;98084.59;;;-1.12;100.00
11038;BME280;5572;49.540;11.932;2023-11-18T05:08:45;98075.22;;;-1.00;100.00
11038;BME280;5572;49.540;11.932;2023-11-18T05:11:12;98085.91;;;-1.08;100.00
11038;BME280;5572;49.540;11.932;2023-11-18T05:13:39;98089.22;;;-1.28;100.00
11038;BME280;5572;49.540;11.932;2023-11-18T05:16:08;98084.56;;;-1.26;100.00
11038;BME280;5572;49.540;11.932;2023-11-18T05:18:36;98085.84;;;-1.37;100.00
11038;BME280;5572;49.540;11.932;2023-11-18T05:21:05;98078.28;;;-1.25;100.00
11038;BME280;5572;49.540;11.932;2023-11-18T05:23:33;98077.03;;;-1.37;100.00
11038;BME280;5572;49.540;11.932;2023-11-18T05:26:00;98072.25;;;-1.19;100.00
11038;BME280;5572;49.540;11.932;2023-11-18T05:28:29;98079.19;;;-1.18;100.00
11038;BME280;5572;49.540;11.932;2023-11-18T05:30:56;98079.13;;;-1.25;100.00
11038;BME280;5572;49.540;11.932;2023-11-18T05:33:28;98083.69;;;-1.19;100.00
11038;BME280;5572;49.540;11.932;2023-11-18T05:35:55;98092.06;;;-1.30;100.00
11038;BME280;5572;49.540;11.932;2023-11-18T05:38:22;98093.72;;;-1.29;100.00
11038;BME280;5572;49.540;11.932;2023-11-18T05:40:50;98091.84;;;-1.20;100.00
11038;BME280;5572;49.540;11.932;2023-11-18T05:43:22;98100.22;;;-1.31;100.00
11038;BME280;5572;49.540;11.932;2023-11-18T05:45:50;98104.13;;;-1.27;100.00
11038;BME280;5572;49.540;11.932;2023-11-18T05:48:41;98095.59;;;-1.15;100.00
11038;BME280;5572;49.540;11.932;2023-11-18T05:51:09;98089.19;;;-1.20;100.00
11038;BME280;5572;49.540;11.932;2023-11-18T05:53:39;98100.91;;;-1.37;100.00
11038;BME280;5572;49.540;11.932;2023-11-18T05:56:07;98096.00;;;-1.48;100.00
11038;BME280;5572;49.540;11.932;2023-11-18T05:58:34;98096.78;;;-1.40;100.00
11038;BME280;5572;49.540;11.932;2023-11-18T06:01:02;98098.78;;;-1.42;100.00
11038;BME280;5572;49.540;11.932;2023-11-18T06:03:29;98114.03;;;-1.66;100.00
11038;BME280;5572;49.540;11.932;2023-11-18T06:05:57;98100.91;;;-1.37;100.00
11038;BME280;5572;49.540;11.932;2023-11-18T06:08:23;98095.72;;;-1.31;100.00
11038;BME280;5572;49.540;11.932;2023-11-18T06:10:50;98100.13;;;-1.23;100.00
11038;BME280;5572;49.540;11.932;2023-11-18T06:13:22;98114.69;;;-1.42;100.00
11038;BME280;5572;49.540;11.932;2023-11-18T06:15:48;98117.22;;;-1.48;100.00
11038;BME280;5572;49.540;11.932;2023-11-18T06:18:16;98109.81;;;-1.53;100.00
11038;BME280;5572;49.540;11.932;2023-11-18T06:20:43;98090.28;;;-1.37;100.00
11038;BME280;5572;49.540;11.932;2023-11-18T06:23:11;98111.34;;;-1.36;100.00
11038;BME280;5572;49.540;11.932;2023-11-18T06:25:41;98106.97;;;-1.29;100.00
11038;BME280;5572;49.540;11.932;2023-11-18T06:28:07;98114.00;;;-1.36;100.00
11038;BME280;5572;49.540;11.932;2023-11-18T06:30:34;98120.13;;;-1.35;100.00
11038;BME280;5572;49.540;11.932;2023-11-18T06:33:01;98115.50;;;-1.19;100.00
11038;BME280;5572;49.540;11.932;2023-11-18T06:35:29;98123.22;;;-1.32;100.00
11038;BME280;5572;49.540;11.932;2023-11-18T06:37:56;98124.66;;;-1.44;100.00
11038;BME280;5572;49.540;11.932;2023-11-18T06:40:25;98119.66;;;-1.39;100.00
11038;BME280;5572;49.540;11.932;2023-11-18T06:42:52;98111.56;;;-1.23;100.00
11038;BME280;5572;49.540;11.932;2023-11-18T06:45:27;98125.81;;;-1.24;100.00
11038;BME280;5572;49.540;11.932;2023-11-18T06:47:57;98132.50;;;-1.28;100.00
11038;BME280;5572;49.540;11.932;2023-11-18T06:50:24;98128.50;;;-1.09;100.00
11038;BME280;5572;49.540;11.932;2023-11-18T06:52:52;98125.53;;;-0.92;100.00
11038;BME280;5572;49.540;11.932;2023-11-18T06:55:19;98124.00;;;-0.87;100.00
11038;BME280;5572;49.540;11.932;2023-11-18T06:57:47;98130.47;;;-1.03;100.00
11038;BME280;5572;49.540;11.932;2023-11-18T07:00:14;98141.84;;;-1.17;100.00
11038;BME280;5572;49.540;11.932;2023-11-18T07:02:41;98135.25;;;-0.85;100.00
11038;BME280;5572;49.540;11.932;2023-11-18T07:05:08;98141.66;;;-0.93;100.00
11038;BME280;5572;49.540;11.932;2023-11-18T07:07:35;98139.94;;;-0.87;100.00
11038;BME280;5572;49.540;11.932;2023-11-18T07:10:04;98140.06;;;-0.66;100.00
11038;BME280;5572;49.540;11.932;2023-11-18T07:12:32;98128.75;;;-0.45;100.00
11038;BME280;5572;49.540;11.932;2023-11-18T07:15:00;98144.00;;;-0.62;100.00
11038;BME280;5572;49.540;11.932;2023-11-18T07:17:27;98142.72;;;-0.51;100.00
11038;BME280;5572;49.540;11.932;2023-11-18T07:19:54;98148.13;;;-0.45;100.00
11038;BME280;5572;49.540;11.932;2023-11-18T07:22:21;98147.59;;;-0.40;100.00
11038;BME280;5572;49.540;11.932;2023-11-18T07:24:47;98159.50;;;-0.36;100.00
11038;BME280;5572;49.540;11.932;2023-11-18T07:27:14;98160.97;;;-0.19;100.00
11038;BME280;5572;49.540;11.932;2023-11-18T07:29:41;98145.56;;;-0.09;100.00
11038;BME280;5572;49.540;11.932;2023-11-18T07:32:11;98138.69;;;-0.04;100.00
11038;BME280;5572;49.540;11.932;2023-11-18T07:34:39;98134.25;;;0.17;100.00
11038;BME280;5572;49.540;11.932;2023-11-18T07:37:06;98128.44;;;0.43;100.00
11038;BME280;5572;49.540;11.932;2023-11-18T07:39:33;98152.34;;;0.07;100.00
11038;BME280;5572;49.540;11.932;2023-11-18T07:42:10;98129.06;;;0.09;100.00
11038;BME280;5572;49.540;11.932;2023-11-18T07:44:40;98121.00;;;0.03;100.00
11038;BME280;5572;49.540;11.932;2023-11-18T07:47:19;98100.16;;;0.21;100.00
11038;BME280;5572;49.540;11.932;2023-11-18T07:49:47;98091.72;;;0.53;100.00
11038;BME280;5572;49.540;11.932;2023-11-18T07:52:13;98080.63;;;0.70;100.00
11038;BME280;5572;49.540;11.932;2023-11-18T07:54:40;98072.34;;;0.80;100.00
11038;BME280;5572;49.540;11.932;2023-11-18T07:57:08;98064.78;;;1.10;100.00
11038;BME280;5572;49.540;11.932;2023-11-18T07:59:35;98068.53;;;1.50;100.00
11038;BME280;5572;49.540;11.932;2023-11-18T08:02:03;98079.72;;;1.66;100.00
11038;BME280;5572;49.540;11.932;2023-11-18T08:04:35;98076.91;;;1.80;100.00
11038;BME280;5572;49.540;11.932;2023-11-18T08:07:02;98084.53;;;1.83;100.00
11038;BME280;5572;49.540;11.932;2023-11-18T08:09:30;98075.97;;;1.94;100.00
11038;BME280;5572;49.540;11.932;2023-11-18T08:11:57;98079.09;;;1.64;100.00
11038;BME280;5572;49.540;11.932;2023-11-18T08:14:24;98049.03;;;1.83;100.00
11038;BME280;5572;49.540;11.932;2023-11-18T08:16:51;98047.56;;;1.74;100.00
11038;BME280;5572;49.540;11.932;2023-11-18T08:19:18;98032.53;;;2.07;100.00
11038;BME280;5572;49.540;11.932;2023-11-18T08:21:46;98033.19;;;2.28;100.00
11038;BME280;5572;49.540;11.932;2023-11-18T08:24:13;98028.63;;;2.09;100.00
11038;BME280;5572;49.540;11.932;2023-11-18T08:26:40;98034.16;;;2.01;100.00
11038;BME280;5572;49.540;11.932;2023-11-18T08:29:07;98029.94;;;2.33;100.00
11038;BME280;5572;49.540;11.932;2023-11-18T08:31:33;98033.25;;;2.41;100.00
11038;BME280;5572;49.540;11.932;2023-11-18T08:34:00;98019.94;;;2.86;100.00
11038;BME280;5572;49.540;11.932;2023-11-18T08:36:27;98018.88;;;3.00;100.00
11038;BME280;5572;49.540;11.932;2023-11-18T08:38:59;98032.06;;;2.89;100.00
11038;BME280;5572;49.540;11.932;2023-11-18T08:41:26;98014.59;;;2.99;100.00
11038;BME280;5572;49.540;11.932;2023-11-18T08:43:53;97991.25;;;3.58;100.00
11038;BME280;5572;49.540;11.932;2023-11-18T08:46:19;98004.88;;;3.43;100.00
11038;BME280;5572;49.540;11.932;2023-11-18T08:48:46;97993.94;;;3.51;100.00
11038;BME280;5572;49.540;11.932;2023-11-18T08:51:13;97963.50;;;4.33;100.00
11038;BME280;5572;49.540;11.932;2023-11-18T08:53:41;97881.56;;;8.39;100.00
11038;BME280;5572;49.540;11.932;2023-11-18T08:56:10;97929.59;;;9.07;100.00
11038;BME280;5572;49.540;11.932;2023-11-18T08:58:41;97913.56;;;11.03;100.00
11038;BME280;5572;49.540;11.932;2023-11-18T09:01:10;97967.88;;;11.28;100.00
11038;BME280;5572;49.540;11.932;2023-11-18T09:03:40;98060.75;;;8.69;100.00
11038;BME280;5572;49.540;11.932;2023-11-18T09:06:14;98142.84;;;5.63;100.00
11038;BME280;5572;49.540;11.932;2023-11-18T09:08:45;98147.44;;;4.64;100.00
11038;BME280;5572;49.540;11.932;2023-11-18T09:11:20;98093.03;;;5.49;100.00
11038;BME280;5572;49.540;11.932;2023-11-18T09:13:48;98079.38;;;6.47;100.00
11038;BME280;5572;49.540;11.932;2023-11-18T09:16:19;98092.97;;;6.52;100.00
11038;BME280;5572;49.540;11.932;2023-11-18T09:18:48;98095.16;;;6.07;100.00
11038;BME280;5572;49.540;11.932;2023-11-18T09:21:14;98111.69;;;5.62;100.00
11038;BME280;5572;49.540;11.932;2023-11-18T09:23:45;98085.53;;;6.00;100.00
11038;BME280;5572;49.540;11.932;2023-11-18T09:26:13;98061.28;;;6.72;100.00
11038;BME280;5572;49.540;11.932;2023-11-18T09:28:43;98063.38;;;6.81;100.00
11038;BME280;5572;49.540;11.932;2023-11-18T09:31:10;98020.84;;;8.38;100.00
11038;BME280;5572;49.540;11.932;2023-11-18T09:33:38;98036.03;;;8.44;100.00
11038;BME280;5572;49.540;11.932;2023-11-18T09:36:11;98078.16;;;7.65;100.00
11038;BME280;5572;49.540;11.932;2023-11-18T09:38:38;98120.03;;;6.32;100.00
11038;BME280;5572;49.540;11.932;2023-11-18T09:41:10;98131.31;;;5.56;100.00
11038;BME280;5572;49.540;11.932;2023-11-18T09:43:37;98109.50;;;5.77;100.00
11038;BME280;5572;49.540;11.932;2023-11-18T09:46:13;98104.69;;;6.03;100.00
11038;BME280;5572;49.540;11.932;2023-11-18T09:48:42;98112.59;;;5.50;100.00
11038;BME280;5572;49.540;11.932;2023-11-18T09:51:15;98076.56;;;5.88;100.00
11038;BME280;5572;49.540;11.932;2023-11-18T09:53:44;98084.09;;;5.55;100.00
11038;BME280;5572;49.540;11.932;2023-11-18T09:56:17;98094.78;;;4.82;100.00
11038;BME280;5572;49.540;11.932;2023-11-18T09:58:58;98040.59;;;5.78;100.00
11038;BME280;5572;49.540;11.932;2023-11-18T10:01:30;98065.53;;;5.36;100.00
11038;BME280;5572;49.540;11.932;2023-11-18T10:03:59;98058.47;;;5.59;100.00
11038;BME280;5572;49.540;11.932;2023-11-18T10:06:32;98040.31;;;6.15;100.00
11038;BME280;5572;49.540;11.932;2023-11-18T10:09:01;98008.31;;;7.13;100.00
11038;BME280;5572;49.540;11.932;2023-11-18T10:11:40;98027.25;;;7.29;100.00
11038;BME280;5572;49.540;11.932;2023-11-18T10:14:07;98024.22;;;7.71;100.00
11038;BME280;5572;49.540;11.932;2023-11-18T10:16:35;98046.28;;;7.05;100.00
11038;BME280;5572;49.540;11.932;2023-11-18T10:19:04;98056.53;;;6.26;100.00
11038;BME280;5572;49.540;11.932;2023-11-18T10:21:35;98042.22;;;6.14;100.00
11038;BME280;5572;49.540;11.932;2023-11-18T10:24:05;98018.34;;;6.54;100.00
11038;BME280;5572;49.540;11.932;2023-11-18T10:26:38;97991.94;;;7.03;100.00
11038;BME280;5572;49.540;11.932;2023-11-18T10:29:05;98007.56;;;6.94;100.00
11038;BME280;5572;49.540;11.932;2023-11-18T10:31:34;97988.69;;;7.12;100.00
11038;BME280;5572;49.540;11.932;2023-11-18T10:34:01;97989.97;;;7.33;100.00
11038;BME280;5572;49.540;11.932;2023-11-18T10:36:29;98042.13;;;6.21;100.00
11038;BME280;5572;49.540;11.932;2023-11-18T10:38:58;98020.94;;;6.31;100.00
11038;BME280;5572;49.540;11.932;2023-11-18T10:41:29;98009.00;;;6.56;100.00
11038;BME280;5572;49.540;11.932;2023-11-18T10:44:05;97989.50;;;7.36;100.00
11038;BME280;5572;49.540;11.932;2023-11-18T10:46:32;97996.50;;;7.14;100.00
11038;BME280;5572;49.540;11.932;2023-11-18T10:49:01;97997.22;;;7.32;100.00
11038;BME280;5572;49.540;11.932;2023-11-18T10:51:35;98004.22;;;7.22;100.00
11038;BME280;5572;49.540;11.932;2023-11-18T10:54:04;97996.28;;;7.61;100.00
11038;BME280;5572;49.540;11.932;2023-11-18T10:56:46;98029.19;;;6.88;100.00
11038;BME280;5572;49.540;11.932;2023-11-18T10:59:13;98010.66;;;7.21;100.00
11038;BME280;5572;49.540;11.932;2023-11-18T11:01:42;97993.22;;;7.69;100.00
11038;BME280;5572;49.540;11.932;2023-11-18T11:04:10;97998.69;;;7.85;100.00
11038;BME280;5572;49.540;11.932;2023-11-18T11:06:42;98032.06;;;7.50;100.00
11038;BME280;5572;49.540;11.932;2023-11-18T11:09:09;98021.59;;;8.11;100.00
11038;BME280;5572;49.540;11.932;2023-11-18T11:11:46;98030.50;;;8.23;100.00
11038;BME280;5572;49.540;11.932;2023-11-18T11:14:15;98039.19;;;8.53;100.00
11038;BME280;5572;49.540;11.932;2023-11-18T11:16:47;98027.59;;;9.29;100.00
11038;BME280;5572;49.540;11.932;2023-11-18T11:19:22;98031.38;;;9.44;100.00
11038;BME280;5572;49.540;11.932;2023-11-18T11:21:55;98050.63;;;9.04;100.00
11038;BME280;5572;49.540;11.932;2023-11-18T11:24:32;98037.66;;;9.66;100.00
11038;BME280;5572;49.540;11.932;2023-11-18T11:27:09;98058.16;;;9.18;100.00
11038;BME280;5572;49.540;11.932;2023-11-18T11:30:02;98061.31;;;8.99;100.00
11038;BME280;5572;49.540;11.932;2023-11-18T11:32:39;98078.34;;;8.71;100.00
11038;BME280;5572;49.540;11.932;2023-11-18T11:35:19;98091.19;;;8.53;100.00
11038;BME280;5572;49.540;11.932;2023-11-18T11:37:48;98079.06;;;8.95;100.00
11038;BME280;5572;49.540;11.932;2023-11-18T11:40:16;98086.59;;;9.09;100.00
11038;BME280;5572;49.540;11.932;2023-11-18T11:42:48;98071.59;;;9.62;100.00
11038;BME280;5572;49.540;11.932;2023-11-18T11:45:21;98072.88;;;9.27;100.00
11038;BME280;5572;49.540;11.932;2023-11-18T11:47:48;98072.16;;;8.87;100.00
11038;BME280;5572;49.540;11.932;2023-11-18T11:50:22;98062.59;;;9.08;100.00
11038;BME280;5572;49.540;11.932;2023-11-18T11:53:02;98059.47;;;9.16;100.00
11038;BME280;5572;49.540;11.932;2023-11-18T11:55:36;98060.47;;;9.26;100.00
11038;BME280;5572;49.540;11.932;2023-11-18T11:58:28;98053.69;;;9.73;100.00
11038;BME280;5572;49.540;11.932;2023-11-18T12:00:57;98044.41;;;9.85;100.00
11038;BME280;5572;49.540;11.932;2023-11-18T12:03:26;98048.66;;;9.81;100.00
11038;BME280;5572;49.540;11.932;2023-11-18T12:06:04;98040.84;;;10.18;100.00
11038;BME280;5572;49.540;11.932;2023-11-18T12:08:43;98042.28;;;9.87;100.00
11038;BME280;5572;49.540;11.932;2023-11-18T12:11:09;98024.47;;;10.29;100.00
11038;BME280;5572;49.540;11.932;2023-11-18T12:13:38;98037.50;;;9.56;100.00
11038;BME280;5572;49.540;11.932;2023-11-18T12:16:06;98052.84;;;8.62;100.00
11038;BME280;5572;49.540;11.932;2023-11-18T12:18:35;98038.97;;;9.31;100.00
11038;BME280;5572;49.540;11.932;2023-11-18T12:21:02;98012.75;;;9.81;100.00
11038;BME280;5572;49.540;11.932;2023-11-18T12:23:29;98029.38;;;9.07;100.00
11038;BME280;5572;49.540;11.932;2023-11-18T12:26:00;98026.13;;;9.22;100.00
11038;BME280;5572;49.540;11.932;2023-11-18T12:28:29;98027.03;;;8.66;100.00
11038;BME280;5572;49.540;11.932;2023-11-18T12:31:00;98008.88;;;8.62;100.00
11038;BME280;5572;49.540;11.932;2023-11-18T12:34:01;98011.91;;;7.87;100.00
11038;BME280;5572;49.540;11.932;2023-11-18T12:36:53;98010.31;;;7.52;100.00
11038;BME280;5572;49.540;11.932;2023-11-18T12:39:38;97987.44;;;8.00;100.00
11038;BME280;5572;49.540;11.932;2023-11-18T12:42:15;98000.38;;;7.52;100.00
11038;BME280;5572;49.540;11.932;2023-11-18T12:45:22;97970.25;;;7.78;100.00
11038;BME280;5572;49.540;11.932;2023-11-18T12:47:55;97928.41;;;8.38;100.00
11038;BME280;5572;49.540;11.932;2023-11-18T12:50:23;97921.44;;;8.69;100.00
11038;BME280;5572;49.540;11.932;2023-11-18T12:52:53;97906.63;;;8.72;100.00
11038;BME280;5572;49.540;11.932;2023-11-18T12:55:20;97906.63;;;8.72;100.00
11038;BME280;5572;49.540;11.932;2023-11-18T12:57:48;97914.47;;;9.06;100.00
11038;BME280;5572;49.540;11.932;2023-11-18T13:00:19;97909.00;;;9.01;100.00
11038;BME280;5572;49.540;11.932;2023-11-18T13:02:53;97934.59;;;8.82;100.00
11038;BME280;5572;49.540;11.932;2023-11-18T13:05:19;97945.94;;;8.12;100.00